Time;durP1;ratioP1;P1;durP2;ratioP2;P2;SDS_P1;SDS_P2;PMS_P1;PMS_P2;Temp;Humidity;BMP_temperature;BMP_pressure;BME280_temperature;BME280_humidity;BME280_pressure;Samples;Min_cycle;Max_cycle;Signal;HPM_P1;HPM_P2
2023/10/04 00:01:59;;;;;;;3.73;1.60;;;18.00;95.80;;;;;;10502535;28;20431;-64
2023/10/04 00:07:03;;;;;;;3.23;1.73;;;18.00;95.80;;;;;;10499060;28;20634;-65
2023/10/04 00:12:04;;;;;;;3.22;1.58;;;18.00;95.80;;;;;;10499569;28;20398;-66
2023/10/04 00:17:05;;;;;;;3.47;1.60;;;18.00;95.80;;;;;;10498219;28;20409;-65
2023/10/04 00:22:05;;;;;;;2.90;1.50;;;18.00;95.80;;;;;;10501202;28;20773;-65
2023/10/04 00:27:06;;;;;;;4.23;1.40;;;18.00;95.80;;;;;;10499690;28;20718;-65
2023/10/04 00:32:06;;;;;;;3.27;1.50;;;18.00;95.90;;;;;;10494613;28;20403;-64
2023/10/04 00:37:16;;;;;;;4.20;1.50;;;18.00;95.90;;;;;;10496953;28;20781;-65
2023/10/04 00:42:19;;;;;;;4.20;1.63;;;18.00;95.90;;;;;;10506791;28;20391;-65
2023/10/04 00:47:21;;;;;;;3.47;1.60;;;18.00;95.90;;;;;;10504003;28;20399;-65
2023/10/04 00:52:22;;;;;;;3.17;1.40;;;18.00;95.90;;;;;;10492963;28;20473;-64
2023/10/04 00:57:22;;;;;;;2.55;1.50;;;18.00;95.90;;;;;;10502603;28;20540;-64
2023/10/04 01:02:23;;;;;;;3.95;1.30;;;17.90;95.90;;;;;;10505145;28;20419;-64
2023/10/04 01:07:24;;;;;;;3.50;1.50;;;17.90;95.90;;;;;;10501777;28;20409;-64
2023/10/04 01:12:25;;;;;;;2.13;1.42;;;17.90;95.90;;;;;;10506528;28;20852;-66
2023/10/04 01:17:28;;;;;;;4.25;1.77;;;17.90;95.90;;;;;;10493510;28;20769;-63
2023/10/04 01:22:28;;;;;;;2.08;1.38;;;17.90;96.00;;;;;;10497493;28;20389;-65
2023/10/04 01:27:30;;;;;;;4.30;1.60;;;17.90;96.00;;;;;;10506274;28;20889;-65
2023/10/04 01:32:31;;;;;;;3.37;1.40;;;17.90;96.00;;;;;;10498704;28;20394;-64
2023/10/04 01:37:34;;;;;;;2.38;1.35;;;17.90;96.00;;;;;;10504099;28;20406;-65
2023/10/04 01:42:35;;;;;;;3.60;1.40;;;17.90;96.00;;;;;;10500680;28;20390;-64
2023/10/04 01:47:35;;;;;;;4.17;1.57;;;17.80;96.00;;;;;;10507461;28;20401;-65
2023/10/04 01:52:39;;;;;;;2.90;1.40;;;17.90;96.00;;;;;;10510127;28;20739;-65
2023/10/04 01:57:41;;;;;;;3.53;1.50;;;17.80;96.00;;;;;;10502033;28;20405;-64
2023/10/04 02:02:42;;;;;;;3.87;1.80;;;17.80;96.00;;;;;;10514708;28;20480;-65
2023/10/04 02:07:46;;;;;;;2.83;1.50;;;17.80;96.00;;;;;;10511658;28;20500;-65
2023/10/04 02:12:46;;;;;;;3.45;1.60;;;17.90;96.00;;;;;;10512578;28;20938;-65
2023/10/04 02:17:48;;;;;;;4.53;1.60;;;17.80;96.00;;;;;;10515720;28;20404;-65
2023/10/04 02:22:54;;;;;;;4.72;1.60;;;17.80;96.00;;;;;;10504978;28;20539;-65
2023/10/04 02:28:06;;;;;;;3.92;1.55;;;17.80;96.00;;;;;;10499947;28;20841;-64
2023/10/04 02:33:13;;;;;;;4.32;1.90;;;17.80;96.00;;;;;;10500557;28;20458;-65
2023/10/04 02:38:16;;;;;;;3.35;1.48;;;17.80;96.00;;;;;;10520639;28;20769;-65
2023/10/04 02:43:20;;;;;;;5.27;1.70;;;17.80;96.00;;;;;;10513400;28;20446;-64
2023/10/04 02:48:20;;;;;;;4.77;2.20;;;17.80;96.00;;;;;;10518566;28;20501;-65
2023/10/04 02:53:24;;;;;;;4.20;1.70;;;17.80;96.00;;;;;;10507283;28;20407;-63
2023/10/04 02:58:25;;;;;;;3.97;1.67;;;17.70;96.00;;;;;;10515519;28;20406;-65
2023/10/04 03:03:26;;;;;;;3.60;1.70;;;17.70;96.00;;;;;;10508724;28;20386;-64
2023/10/04 03:08:27;;;;;;;4.23;1.60;;;17.70;96.00;;;;;;10506482;28;20394;-64
2023/10/04 03:13:27;;;;;;;3.85;1.77;;;17.70;95.90;;;;;;10513299;28;20905;-65
2023/10/04 03:18:28;;;;;;;3.47;1.50;;;17.70;96.00;;;;;;10495473;28;20518;-65
2023/10/04 03:23:40;;;;;;;3.13;1.60;;;17.70;95.90;;;;;;10493067;28;20396;-65
2023/10/04 03:28:41;;;;;;;5.53;2.00;;;17.70;95.90;;;;;;10486566;28;20764;-65
2023/10/04 03:33:44;;;;;;;4.53;1.60;;;17.60;95.90;;;;;;10493170;28;20410;-64
2023/10/04 03:38:45;;;;;;;4.17;2.03;;;17.60;95.90;;;;;;10489592;28;20419;-64
2023/10/04 03:43:46;;;;;;;4.70;1.80;;;17.60;95.90;;;;;;10494696;28;20482;-65
2023/10/04 03:48:48;;;;;;;4.18;1.75;;;17.60;95.90;;;;;;10497104;28;20399;-64
2023/10/04 03:53:50;;;;;;;5.27;1.70;;;17.60;95.90;;;;;;10495778;28;20410;-64
2023/10/04 03:58:51;;;;;;;4.55;1.92;;;17.60;95.90;;;;;;10489770;28;20407;-64
2023/10/04 04:03:52;;;;;;;3.13;1.67;;;17.60;95.80;;;;;;10497707;28;20759;-64
2023/10/04 04:08:55;;;;;;;4.00;1.70;;;17.60;95.80;;;;;;10498233;28;20396;-65
2023/10/04 04:13:57;;;;;;;3.33;1.70;;;17.60;95.80;;;;;;10494328;28;20416;-63
2023/10/04 04:18:59;;;;;;;4.43;1.88;;;17.50;95.80;;;;;;10491718;28;20459;-65
2023/10/04 04:24:00;;;;;;;4.43;2.00;;;17.50;95.80;;;;;;10497306;28;20394;-65
2023/10/04 04:29:00;;;;;;;3.37;1.50;;;17.50;95.80;;;;;;10497722;28;20400;-65
2023/10/04 04:34:03;;;;;;;4.00;1.70;;;17.50;95.80;;;;;;10503082;28;20552;-65
2023/10/04 04:39:05;;;;;;;4.78;1.90;;;17.50;95.80;;;;;;10489354;28;20402;-64
2023/10/04 04:44:10;;;;;;;4.20;1.90;;;17.50;95.80;;;;;;10487403;28;20475;-65
2023/10/04 04:49:10;;;;;;;3.70;1.70;;;17.50;95.80;;;;;;10490728;28;20459;-65
2023/10/04 04:54:12;;;;;;;2.70;1.60;;;17.50;95.80;;;;;;10496867;28;20393;-65
2023/10/04 04:59:14;;;;;;;3.92;1.80;;;17.50;95.80;;;;;;10487006;28;20895;-65
2023/10/04 05:04:18;;;;;;;4.53;1.70;;;17.40;95.80;;;;;;10493182;28;20897;-65
2023/10/04 05:09:18;;;;;;;3.70;1.60;;;17.40;95.80;;;;;;10492764;28;21007;-64
2023/10/04 05:14:20;;;;;;;3.80;1.80;;;17.50;95.80;;;;;;10488437;28;20495;-66
2023/10/04 05:19:20;;;;;;;5.25;1.80;;;17.40;95.80;;;;;;10497790;28;20540;-65
2023/10/04 05:24:21;;;;;;;4.63;1.90;;;17.40;95.80;;;;;;10489407;28;20390;-64
2023/10/04 05:29:22;;;;;;;3.53;1.60;;;17.40;95.80;;;;;;10491916;28;20420;-65
2023/10/04 05:34:23;;;;;;;4.28;1.70;;;17.40;95.80;;;;;;10495524;28;20489;-63
2023/10/04 05:39:23;;;;;;;6.23;1.80;;;17.40;95.80;;;;;;10500439;28;20409;-65
2023/10/04 05:44:24;;;;;;;4.03;1.83;;;17.40;95.80;;;;;;10489645;28;21029;-64
2023/10/04 05:49:26;;;;;;;3.30;1.60;;;17.40;95.80;;;;;;10492620;28;20969;-65
2023/10/04 05:54:26;;;;;;;4.73;1.83;;;17.40;95.80;;;;;;10495636;28;20390;-65
2023/10/04 05:59:27;;;;;;;3.70;1.70;;;17.30;95.70;;;;;;10503865;28;20496;-64
2023/10/04 06:04:28;;;;;;;3.85;1.70;;;17.40;95.80;;;;;;10471241;28;20394;-65
2023/10/04 06:09:32;;;;;;;4.43;2.00;;;17.30;95.70;;;;;;10486495;28;20404;-65
2023/10/04 06:14:32;;;;;;;3.70;1.90;;;17.30;96.00;;;;;;10498228;28;20901;-64
2023/10/04 06:19:33;;;;;;;4.80;2.00;;;17.30;95.70;;;;;;10497751;28;20424;-65
2023/10/04 06:24:34;;;;;;;5.00;1.70;;;17.30;95.70;;;;;;10490015;28;20543;-65
2023/10/04 06:29:35;;;;;;;4.27;1.80;;;17.30;95.70;;;;;;10497091;28;20397;-65
2023/10/04 06:34:35;;;;;;;4.07;1.90;;;17.30;95.90;;;;;;10499762;28;20411;-64
2023/10/04 06:39:36;;;;;;;4.78;2.10;;;17.30;95.60;;;;;;10502298;28;20776;-65
2023/10/04 06:44:37;;;;;;;4.97;1.80;;;17.30;95.60;;;;;;10495865;28;20475;-63
2023/10/04 06:49:38;;;;;;;4.95;1.90;;;17.30;95.60;;;;;;10497194;28;20412;-66
2023/10/04 06:54:38;;;;;;;4.15;1.80;;;17.30;95.60;;;;;;10503375;28;20434;-64
2023/10/04 06:59:39;;;;;;;5.53;1.90;;;17.20;95.60;;;;;;10502337;28;20487;-65
2023/10/04 07:04:40;;;;;;;3.97;2.10;;;17.30;95.60;;;;;;10501119;28;20400;-64
2023/10/04 07:09:41;;;;;;;4.20;1.80;;;17.30;95.60;;;;;;10495203;28;20396;-64
2023/10/04 07:14:43;;;;;;;3.80;1.83;;;17.30;95.60;;;;;;10490272;28;20399;-65
2023/10/04 07:19:44;;;;;;;5.13;1.88;;;17.30;95.60;;;;;;10490948;28;20412;-65
2023/10/04 07:24:44;;;;;;;4.68;2.00;;;17.30;95.60;;;;;;10498244;28;20404;-63
2023/10/04 07:29:47;;;;;;;5.72;2.20;;;17.30;95.60;;;;;;10501545;28;20480;-64
2023/10/04 07:34:47;;;;;;;4.93;1.97;;;17.40;95.60;;;;;;10495529;28;20514;-64
2023/10/04 07:39:48;;;;;;;3.90;1.70;;;17.40;95.60;;;;;;10498223;28;20412;-65
2023/10/04 07:44:49;;;;;;;3.83;1.90;;;17.50;95.60;;;;;;10499221;28;20391;-65
2023/10/04 07:49:49;;;;;;;4.03;1.60;;;17.60;95.50;;;;;;10492948;28;20402;-64
2023/10/04 07:54:53;;;;;;;5.07;1.80;;;17.60;95.50;;;;;;10497870;28;20734;-65
2023/10/04 07:59:54;;;;;;;4.97;2.05;;;17.60;95.40;;;;;;10496607;28;20423;-64
2023/10/04 08:04:54;;;;;;;4.90;2.10;;;17.70;95.40;;;;;;10506444;28;20400;-64
2023/10/04 08:09:58;;;;;;;4.17;1.80;;;17.70;95.40;;;;;;10492898;28;20409;-64
2023/10/04 08:15:01;;;;;;;5.90;2.10;;;17.80;95.50;;;;;;10493379;28;20875;-65
2023/10/04 08:20:03;;;;;;;5.37;2.07;;;17.80;95.50;;;;;;10494226;28;20487;-64
2023/10/04 08:25:04;;;;;;;4.53;1.90;;;17.80;95.40;;;;;;10501591;28;20404;-65
2023/10/04 08:30:06;;;;;;;5.67;2.00;;;17.80;95.40;;;;;;10500742;28;20973;-64
2023/10/04 08:35:33;;;;;;;4.45;2.00;;;17.90;95.40;;;;;;10509604;28;20417;-63
2023/10/04 08:40:38;;;;;;;5.20;2.03;;;17.90;95.40;;;;;;10501907;28;20464;-64
2023/10/04 08:45:42;;;;;;;4.47;1.90;;;17.90;95.30;;;;;;10496141;28;20386;-65
2023/10/04 08:50:55;;;;;;;5.60;2.30;;;17.90;95.40;;;;;;10499644;28;20987;-64
2023/10/04 08:56:25;;;;;;;4.40;2.00;;;18.00;95.40;;;;;;10493582;28;20409;-65
2023/10/04 09:01:29;;;;;;;3.65;2.08;;;18.00;95.40;;;;;;10491741;28;20432;-64
2023/10/04 09:06:30;;;;;;;5.30;2.05;;;18.00;95.40;;;;;;10494747;28;20533;-65
2023/10/04 09:11:30;;;;;;;4.80;2.10;;;18.00;95.40;;;;;;10494385;28;20505;-64
2023/10/04 09:16:31;;;;;;;4.03;1.90;;;18.00;95.40;;;;;;10492009;28;20437;-65
2023/10/04 09:21:32;;;;;;;5.28;1.90;;;18.10;95.60;;;;;;10492881;28;20404;-64
2023/10/04 09:26:33;;;;;;;6.55;2.03;;;18.10;95.40;;;;;;10492583;28;20913;-65
2023/10/04 09:31:55;;;;;;;4.43;1.83;;;18.10;95.40;;;;;;10497096;28;20399;-65
2023/10/04 09:36:57;;;;;;;5.70;2.45;;;18.10;95.30;;;;;;10495781;28;20941;-65
2023/10/04 09:42:04;;;;;;;4.50;1.93;;;18.20;95.30;;;;;;10494894;28;20417;-65
2023/10/04 09:47:05;;;;;;;5.80;2.42;;;18.20;95.30;;;;;;10499258;28;20394;-62
2023/10/04 09:52:12;;;;;;;4.88;2.50;;;18.20;95.30;;;;;;10495272;28;20397;-65
2023/10/04 09:57:16;;;;;;;4.97;2.20;;;18.30;95.30;;;;;;10500162;28;20437;-65
2023/10/04 10:02:18;;;;;;;7.20;2.33;;;18.30;95.30;;;;;;10497607;28;20405;-65
2023/10/04 10:07:21;;;;;;;5.45;2.17;;;18.30;95.30;;;;;;10492686;28;20971;-65
2023/10/04 10:12:23;;;;;;;4.03;2.03;;;18.30;95.30;;;;;;10496107;28;20399;-64
2023/10/04 10:17:23;;;;;;;5.70;2.17;;;18.40;95.30;;;;;;10495084;28;20911;-65
2023/10/04 10:22:24;;;;;;;4.43;2.33;;;18.40;95.30;;;;;;10502294;28;20393;-64
2023/10/04 10:27:28;;;;;;;5.43;2.30;;;18.40;95.20;;;;;;10506802;28;20404;-64
2023/10/04 10:32:29;;;;;;;7.03;2.38;;;18.40;95.20;;;;;;10500932;28;20501;-64
2023/10/04 10:37:32;;;;;;;4.57;2.10;;;18.40;95.20;;;;;;10505243;28;20415;-65
2023/10/04 10:43:10;;;;;;;5.78;2.50;;;18.40;95.20;;;;;;10508384;28;20413;-65
2023/10/04 10:48:12;;;;;;;5.80;2.33;;;19.30;95.40;;;;;;10498224;28;20396;-65
2023/10/04 10:53:14;;;;;;;7.80;2.50;;;18.40;95.20;;;;;;10512754;28;20394;-65
2023/10/04 10:58:14;;;;;;;5.60;2.25;;;18.40;95.20;;;;;;10508925;28;20615;-65
2023/10/04 11:03:18;;;;;;;6.87;2.57;;;18.40;95.30;;;;;;10503212;28;20397;-64
2023/10/04 11:08:22;;;;;;;7.50;2.70;;;18.40;95.30;;;;;;10501787;28;20403;-65
2023/10/04 11:13:24;;;;;;;5.82;2.40;;;18.40;95.30;;;;;;10510056;28;20785;-64
2023/10/04 11:18:28;;;;;;;5.78;2.60;;;18.40;95.40;;;;;;10505255;28;20635;-65
2023/10/04 11:23:29;;;;;;;6.55;2.63;;;18.40;95.40;;;;;;10503664;28;20418;-63
2023/10/04 11:28:30;;;;;;;7.50;2.70;;;18.40;95.40;;;;;;10499660;28;20502;-65
2023/10/04 11:33:52;;;;;;;6.83;2.47;;;18.40;95.40;;;;;;10512023;28;20479;-65
2023/10/04 11:38:54;;;;;;;6.95;2.80;;;18.40;95.40;;;;;;10504304;28;20413;-65
2023/10/04 11:44:00;;;;;;;6.60;2.90;;;18.40;95.40;;;;;;10506874;28;20391;-65
2023/10/04 11:49:13;;;;;;;7.57;2.97;;;18.40;95.40;;;;;;10505864;28;20474;-65
2023/10/04 11:54:14;;;;;;;6.90;3.00;;;18.40;95.40;;;;;;10496165;28;20402;-65
2023/10/04 11:59:26;;;;;;;6.60;2.83;;;18.50;95.40;;;;;;10498331;28;20405;-66
2023/10/04 12:04:28;;;;;;;5.40;2.63;;;18.50;95.40;;;;;;10500658;28;20412;-65
2023/10/04 12:09:33;;;;;;;7.03;2.90;;;18.40;95.40;;;;;;10498082;28;21079;-65
2023/10/04 12:14:34;;;;;;;7.25;2.80;;;18.40;95.50;;;;;;10499190;28;20425;-65
2023/10/04 12:19:35;;;;;;;6.78;2.95;;;18.40;95.50;;;;;;10496688;28;20424;-65
2023/10/04 12:24:37;;;;;;;6.70;3.03;;;18.40;95.60;;;;;;10501873;28;20390;-64
2023/10/04 12:29:38;;;;;;;5.95;2.92;;;18.40;95.60;;;;;;10506629;28;20753;-64
2023/10/04 12:34:40;;;;;;;6.43;2.87;;;18.40;95.60;;;;;;10501984;28;20402;-65
2023/10/04 12:39:43;;;;;;;6.38;2.88;;;18.50;95.50;;;;;;10506751;28;20903;-65
2023/10/04 12:44:43;;;;;;;7.72;3.22;;;18.50;95.40;;;;;;10500084;28;20901;-66
2023/10/04 12:49:44;;;;;;;7.70;2.87;;;18.50;95.40;;;;;;10503042;28;20394;-65
2023/10/04 12:54:44;;;;;;;5.83;2.97;;;18.50;95.30;;;;;;10502440;28;20394;-66
2023/10/04 12:59:45;;;;;;;6.57;2.97;;;18.50;95.60;;;;;;10502000;28;20410;-65
2023/10/04 13:04:49;;;;;;;6.87;3.20;;;18.50;95.60;;;;;;10504790;28;20918;-66
2023/10/04 13:09:50;;;;;;;6.90;3.00;;;18.50;95.30;;;;;;10498191;28;20496;-65
2023/10/04 13:14:52;;;;;;;6.10;2.88;;;18.50;95.40;;;;;;10494978;28;20493;-65
2023/10/04 13:19:53;;;;;;;7.05;3.10;;;18.50;95.40;;;;;;10493568;28;20416;-66
2023/10/04 13:24:53;;;;;;;5.23;2.90;;;18.50;95.40;;;;;;10501045;28;20915;-66
2023/10/04 13:29:54;;;;;;;6.77;2.60;;;18.60;95.40;;;;;;10508517;28;20753;-65
2023/10/04 13:34:54;;;;;;;7.80;3.10;;;18.60;95.40;;;;;;10499133;28;20404;-65
2023/10/04 13:39:55;;;;;;;7.37;3.00;;;18.50;95.40;;;;;;10511696;28;20422;-64
2023/10/04 13:44:57;;;;;;;7.28;3.28;;;18.60;95.40;;;;;;10501358;28;20388;-65
2023/10/04 13:49:58;;;;;;;6.32;2.83;;;18.60;95.40;;;;;;10506041;28;20454;-64
2023/10/04 13:54:59;;;;;;;8.30;3.17;;;18.60;95.40;;;;;;10498615;28;20468;-64
2023/10/04 13:59:59;;;;;;;5.25;2.88;;;18.50;95.40;;;;;;10511085;28;20409;-65
2023/10/04 14:05:00;;;;;;;8.18;3.28;;;18.50;95.50;;;;;;10510822;28;20899;-66
2023/10/04 14:10:01;;;;;;;8.00;3.50;;;18.50;95.60;;;;;;10500381;28;20408;-65
2023/10/04 14:15:07;;;;;;;7.17;3.23;;;18.50;95.60;;;;;;10512339;28;20410;-66
2023/10/04 14:20:13;;;;;;;9.03;3.40;;;18.50;95.70;;;;;;10495709;28;20493;-64
2023/10/04 14:25:14;;;;;;;7.07;3.22;;;18.50;95.70;;;;;;10515153;28;20402;-65
2023/10/04 14:30:20;;;;;;;6.07;3.35;;;18.50;95.70;;;;;;10512600;28;20391;-65
2023/10/04 14:35:22;;;;;;;5.93;3.23;;;18.50;95.70;;;;;;10512538;28;20402;-66
2023/10/04 14:40:25;;;;;;;7.00;3.13;;;18.50;95.70;;;;;;10508910;28;20434;-66
2023/10/04 14:45:27;;;;;;;7.28;3.20;;;18.50;95.60;;;;;;10508002;28;20690;-66
2023/10/04 14:50:31;;;;;;;6.00;3.22;;;18.50;95.60;;;;;;10516160;28;20451;-66
2023/10/04 14:55:31;;;;;;;6.05;3.22;;;18.50;95.60;;;;;;10508872;28;20398;-65
2023/10/04 15:00:32;;;;;;;7.53;3.27;;;18.50;95.60;;;;;;10497502;28;20393;-65
2023/10/04 15:05:32;;;;;;;8.00;3.40;;;18.50;95.60;;;;;;10500611;28;20398;-66
2023/10/04 15:10:33;;;;;;;7.50;3.50;;;18.50;95.60;;;;;;10503327;28;20395;-65
2023/10/04 15:15:34;;;;;;;7.63;3.50;;;18.50;95.50;;;;;;10494797;28;20497;-65
2023/10/04 15:20:35;;;;;;;6.03;3.03;;;18.50;95.50;;;;;;10498530;28;20827;-65
2023/10/04 15:25:41;;;;;;;6.80;3.00;;;18.50;95.50;;;;;;10500672;28;20844;-65
2023/10/04 15:30:44;;;;;;;6.43;3.00;;;18.50;95.50;;;;;;10503613;28;20417;-66
2023/10/04 15:35:45;;;;;;;6.88;3.05;;;18.50;95.50;;;;;;10499779;28;20629;-66
2023/10/04 15:40:46;;;;;;;5.43;2.97;;;18.50;95.50;;;;;;10495045;28;20409;-64
2023/10/04 15:45:48;;;;;;;6.27;3.00;;;18.50;95.60;;;;;;10500977;28;20425;-66
2023/10/04 15:50:49;;;;;;;5.82;3.00;;;18.50;95.60;;;;;;10499185;28;20396;-65
2023/10/04 15:55:49;;;;;;;7.03;3.10;;;18.50;95.60;;;;;;10494770;28;21218;-65
2023/10/04 16:00:50;;;;;;;5.27;2.97;;;18.50;95.60;;;;;;10490253;28;20475;-66
2023/10/04 16:05:51;;;;;;;7.20;3.00;;;18.40;95.60;;;;;;10498124;28;20934;-66
2023/10/04 16:10:51;;;;;;;5.90;2.87;;;18.40;95.70;;;;;;10494022;28;20393;-65
2023/10/04 16:15:53;;;;;;;5.47;2.93;;;18.40;95.70;;;;;;10497481;28;20912;-65
2023/10/04 16:20:56;;;;;;;7.60;3.30;;;18.40;95.60;;;;;;10497379;28;20765;-65
2023/10/04 16:25:57;;;;;;;5.63;2.88;;;18.40;95.70;;;;;;10495960;28;20481;-65
2023/10/04 16:31:01;;;;;;;6.07;2.95;;;18.40;95.70;;;;;;10505211;28;20836;-65
2023/10/04 16:36:03;;;;;;;5.40;2.85;;;18.40;95.70;;;;;;10501109;28;20416;-64
2023/10/04 16:41:04;;;;;;;5.57;2.70;;;18.40;95.70;;;;;;10503786;28;20403;-65
2023/10/04 16:46:05;;;;;;;6.07;3.00;;;18.40;95.70;;;;;;10487669;28;20537;-64
2023/10/04 16:51:05;;;;;;;4.80;2.80;;;18.40;95.70;;;;;;10503205;28;20399;-66
2023/10/04 16:56:09;;;;;;;5.17;2.80;;;18.40;95.70;;;;;;10491031;28;20818;-66
2023/10/04 17:01:10;;;;;;;4.22;2.58;;;18.40;95.70;;;;;;10493954;28;20419;-65
2023/10/04 17:06:11;;;;;;;5.30;2.73;;;18.40;95.70;;;;;;10495105;28;20435;-64
2023/10/04 17:11:12;;;;;;;4.90;2.60;;;18.40;95.60;;;;;;10494868;28;20395;-66
2023/10/04 17:16:12;;;;;;;4.57;2.50;;;18.30;95.60;;;;;;10489596;28;20459;-65
2023/10/04 17:21:15;;;;;;;4.47;2.55;;;18.40;95.60;;;;;;10494100;28;21024;-66
2023/10/04 17:26:16;;;;;;;5.80;2.80;;;18.30;95.50;;;;;;10500255;28;20478;-65
2023/10/04 17:31:17;;;;;;;4.57;2.58;;;18.30;95.60;;;;;;10496869;28;20429;-65
2023/10/04 17:36:17;;;;;;;4.93;2.60;;;18.30;95.50;;;;;;10490348;28;20404;-65
2023/10/04 17:41:18;;;;;;;5.43;2.50;;;18.30;95.50;;;;;;10491980;28;20515;-65
2023/10/04 17:46:19;;;;;;;3.87;2.40;;;18.30;95.60;;;;;;10491651;28;20551;-65
2023/10/04 17:51:19;;;;;;;4.47;2.50;;;18.30;95.50;;;;;;10491381;28;20455;-65
2023/10/04 17:56:20;;;;;;;5.30;2.47;;;18.30;95.50;;;;;;10496626;28;20399;-65
2023/10/04 18:01:21;;;;;;;3.90;2.33;;;18.30;95.50;;;;;;10497034;28;20879;-66
2023/10/04 18:06:23;;;;;;;4.78;2.22;;;18.20;95.50;;;;;;10495480;28;20487;-66
2023/10/04 18:11:25;;;;;;;3.67;2.40;;;18.20;95.40;;;;;;10490098;28;20403;-65
2023/10/04 18:16:25;;;;;;;4.43;2.50;;;18.20;95.50;;;;;;10491290;28;20844;-66
2023/10/04 18:21:26;;;;;;;5.38;2.58;;;18.20;95.50;;;;;;10485060;28;20408;-66
2023/10/04 18:26:27;;;;;;;5.40;2.30;;;18.20;95.40;;;;;;10494214;28;20401;-66
2023/10/04 18:31:27;;;;;;;4.87;2.30;;;18.20;95.40;;;;;;10498007;28;20836;-65
2023/10/04 18:36:28;;;;;;;3.13;2.03;;;18.20;95.40;;;;;;10502232;28;20476;-65
2023/10/04 18:41:34;;;;;;;5.28;2.05;;;18.20;95.40;;;;;;10507033;28;20929;-66
2023/10/04 18:46:36;;;;;;;5.07;2.33;;;18.20;95.40;;;;;;10504803;28;20456;-66
2023/10/04 18:51:37;;;;;;;4.15;2.17;;;18.10;95.40;;;;;;10510457;28;20469;-66
2023/10/04 18:56:38;;;;;;;4.15;2.55;;;18.10;95.40;;;;;;10498112;28;20410;-63
2023/10/04 19:01:39;;;;;;;3.20;2.10;;;18.10;95.40;;;;;;10503593;28;20475;-64
2023/10/04 19:06:40;;;;;;;4.10;2.20;;;18.10;95.30;;;;;;10490072;28;20494;-65
2023/10/04 19:11:40;;;;;;;4.33;2.23;;;18.10;95.40;;;;;;10499172;28;20470;-66
2023/10/04 19:16:41;;;;;;;4.47;2.10;;;18.10;95.40;;;;;;10488298;28;20414;-65
2023/10/04 19:21:42;;;;;;;4.10;2.10;;;18.10;95.40;;;;;;10488949;28;20477;-65
2023/10/04 19:26:44;;;;;;;5.10;2.10;;;18.00;95.40;;;;;;10504156;28;20400;-66
2023/10/04 19:31:45;;;;;;;4.15;1.95;;;18.00;95.70;;;;;;10505871;28;20458;-65
2023/10/04 19:36:46;;;;;;;3.90;1.98;;;18.00;95.40;;;;;;10506114;28;20509;-65
2023/10/04 19:41:46;;;;;;;4.63;1.80;;;18.00;95.40;;;;;;10505098;28;20486;-66
2023/10/04 19:46:47;;;;;;;4.23;1.90;;;18.00;95.40;;;;;;10502167;28;20429;-65
2023/10/04 19:51:47;;;;;;;4.63;2.10;;;18.00;95.40;;;;;;10506457;28;20401;-65
2023/10/04 19:56:48;;;;;;;5.33;2.03;;;17.90;95.40;;;;;;10500012;28;20406;-65
2023/10/04 20:01:52;;;;;;;4.37;1.87;;;17.90;95.40;;;;;;10504123;28;20390;-66
2023/10/04 20:06:52;;;;;;;3.70;1.60;;;17.90;95.40;;;;;;10491373;28;20898;-66
2023/10/04 20:11:54;;;;;;;3.60;1.87;;;17.90;95.30;;;;;;10499670;28;21075;-65
2023/10/04 20:16:56;;;;;;;3.85;1.80;;;17.90;95.30;;;;;;10501293;28;20460;-66
2023/10/04 20:21:57;;;;;;;3.10;1.70;;;17.90;95.30;;;;;;10489709;28;20858;-65
2023/10/04 20:26:57;;;;;;;3.40;1.70;;;17.90;95.30;;;;;;10502477;28;20405;-66
2023/10/04 20:31:58;;;;;;;4.60;1.90;;;17.90;95.30;;;;;;10505294;28;20477;-66
2023/10/04 20:36:59;;;;;;;4.25;2.00;;;17.90;95.30;;;;;;10496877;28;20417;-66
2023/10/04 20:41:59;;;;;;;3.17;1.75;;;17.90;95.30;;;;;;10505420;28;20398;-65
2023/10/04 20:47:00;;;;;;;3.97;2.00;;;17.80;95.20;;;;;;10503835;28;20397;-65
2023/10/04 20:52:00;;;;;;;4.10;2.07;;;17.80;95.20;;;;;;10501354;28;20495;-66
2023/10/04 20:57:03;;;;;;;4.00;1.80;;;17.80;95.20;;;;;;10499508;28;20557;-66
2023/10/04 21:02:04;;;;;;;2.88;1.67;;;17.80;95.20;;;;;;10500434;28;20412;-65
2023/10/04 21:07:04;;;;;;;4.50;1.80;;;17.80;95.20;;;;;;10496385;28;20400;-65
2023/10/04 21:12:07;;;;;;;2.93;1.63;;;17.80;95.20;;;;;;10499665;28;20634;-66
2023/10/04 21:17:07;;;;;;;3.00;1.67;;;17.70;95.20;;;;;;10486543;28;20402;-65
2023/10/04 21:22:08;;;;;;;3.47;1.73;;;17.70;95.20;;;;;;10496118;28;20386;-65
2023/10/04 21:27:09;;;;;;;2.87;1.67;;;17.70;95.20;;;;;;10499910;28;20486;-66
2023/10/04 21:32:15;;;;;;;3.87;1.63;;;17.70;95.20;;;;;;10499459;28;20883;-66
2023/10/04 21:37:16;;;;;;;3.47;1.60;;;17.80;95.20;;;;;;10501243;28;20489;-65
2023/10/04 21:42:21;;;;;;;2.75;1.50;;;17.70;95.20;;;;;;10505267;28;20392;-65
2023/10/04 21:47:28;;;;;;;3.43;1.70;;;17.70;95.20;;;;;;10499687;28;20930;-65
2023/10/04 21:52:31;;;;;;;3.60;1.52;;;17.70;95.20;;;;;;10505584;28;20428;-66
2023/10/04 21:57:31;;;;;;;4.25;1.58;;;17.70;95.20;;;;;;10498239;28;20781;-65
2023/10/04 22:02:33;;;;;;;4.30;1.73;;;17.70;95.20;;;;;;10504817;28;20410;-66
2023/10/04 22:07:35;;;;;;;4.53;1.55;;;17.70;95.20;;;;;;10491163;28;20782;-65
2023/10/04 22:12:39;;;;;;;3.40;1.50;;;17.70;95.20;;;;;;10502214;28;20398;-65
2023/10/04 22:17:41;;;;;;;2.37;1.50;;;17.60;95.20;;;;;;10499816;28;20926;-65
2023/10/04 22:22:42;;;;;;;2.90;1.43;;;17.60;95.20;;;;;;10499561;28;20527;-65
2023/10/04 22:27:43;;;;;;;2.45;1.58;;;17.60;95.20;;;;;;10509743;28;20815;-66
2023/10/04 22:32:46;;;;;;;2.93;1.60;;;17.60;95.20;;;;;;10507280;28;20460;-65
2023/10/04 22:37:47;;;;;;;3.83;1.80;;;17.60;95.20;;;;;;10512198;28;20406;-65
2023/10/04 22:42:48;;;;;;;3.58;1.70;;;17.60;95.20;;;;;;10506732;28;20830;-64
2023/10/04 22:47:51;;;;;;;3.47;1.52;;;17.60;95.30;;;;;;10512650;28;20955;-65
2023/10/04 22:52:53;;;;;;;2.60;1.40;;;17.60;95.30;;;;;;10503798;28;20401;-65
2023/10/04 22:57:54;;;;;;;3.30;1.40;;;17.60;95.30;;;;;;10507905;28;20825;-65
2023/10/04 23:02:56;;;;;;;1.90;1.30;;;17.60;95.30;;;;;;10505642;28;20389;-64
2023/10/04 23:07:56;;;;;;;3.67;1.63;;;17.60;95.30;;;;;;10504051;28;20402;-65
2023/10/04 23:12:57;;;;;;;2.77;1.50;;;17.60;95.30;;;;;;10509924;28;20679;-65
2023/10/04 23:18:42;;;;;;;3.80;1.53;;;17.60;95.40;;;;;;10507158;28;20409;-66
2023/10/04 23:23:27;;;;;;;3.05;1.50;;;17.60;95.40;;;;;;10493871;28;20407;-65
2023/10/04 23:28:28;;;;;;;2.65;1.52;;;17.60;95.40;;;;;;10503762;28;20390;-64
2023/10/04 23:33:32;;;;;;;2.87;1.53;;;17.50;95.40;;;;;;10511542;28;20481;-66
2023/10/04 23:43:40;;;;;;;3.47;1.40;;;17.50;95.40;;;;;;10510268;28;20401;-66
2023/10/04 23:48:41;;;;;;;3.10;1.63;;;17.50;95.40;;;;;;10510814;28;20402;-65
2023/10/04 23:58:46;;;;;;;3.05;1.42;;;17.50;95.50;;;;;;10513801;28;20410;-65
